createdAt,value
2023-01-27T00:02:28.466Z,1.30
2023-01-27T00:05:01.719Z,1.28
2023-01-27T00:07:36.711Z,1.29
2023-01-27T00:10:12.428Z,1.30
2023-01-27T00:13:05.770Z,1.33
2023-01-27T00:15:39.501Z,1.33
2023-01-27T00:18:13.400Z,1.36
2023-01-27T00:21:05.075Z,1.35
2023-01-27T00:24:02.699Z,1.42
2023-01-27T00:26:35.888Z,1.41
2023-01-27T00:29:09.061Z,1.35
2023-01-27T00:31:59.754Z,1.37
2023-01-27T00:34:33.277Z,1.34
2023-01-27T00:37:06.853Z,1.35
2023-01-27T00:39:41.618Z,1.38
2023-01-27T00:42:14.953Z,1.35
2023-01-27T00:45:02.046Z,1.42
2023-01-27T00:47:35.154Z,1.44
2023-01-27T00:50:09.519Z,1.43
2023-01-27T00:52:42.751Z,1.41
2023-01-27T00:55:18.364Z,1.28
2023-01-27T00:57:51.745Z,1.39
2023-01-27T01:00:25.122Z,1.41
2023-01-27T01:02:58.393Z,1.42
2023-01-27T01:05:31.589Z,1.38
2023-01-27T01:08:04.911Z,1.39
2023-01-27T01:10:40.688Z,1.38
2023-01-27T01:13:14.992Z,1.38
2023-01-27T01:15:48.552Z,1.39
2023-01-27T01:18:22.551Z,1.42
2023-01-27T01:20:55.860Z,1.38
2023-01-27T01:23:29.122Z,1.41
2023-01-27T01:26:03.828Z,1.41
2023-01-27T01:28:37.310Z,1.45
2023-01-27T01:31:13.019Z,1.48
2023-01-27T01:33:46.591Z,1.46
2023-01-27T01:36:22.437Z,1.49
2023-01-27T01:38:57.013Z,1.48
2023-01-27T01:41:32.017Z,1.50
2023-01-27T01:44:20.828Z,1.55
2023-01-27T01:46:54.284Z,1.48
2023-01-27T01:49:32.175Z,1.54
2023-01-27T01:52:10.762Z,1.50
2023-01-27T01:54:46.350Z,1.50
2023-01-27T01:57:25.379Z,1.49
2023-01-27T02:00:02.878Z,1.50
2023-01-27T02:02:38.116Z,1.46
2023-01-27T02:05:15.725Z,1.42
2023-01-27T02:07:56.121Z,1.29
2023-01-27T02:10:29.758Z,1.37
2023-01-27T02:13:07.063Z,1.37
2023-01-27T02:15:41.203Z,1.35
2023-01-27T02:18:15.530Z,1.31
2023-01-27T02:20:50.830Z,1.34
2023-01-27T02:23:35.148Z,1.39
2023-01-27T02:26:15.442Z,1.37
2023-01-27T02:28:56.795Z,1.37
2023-01-27T02:31:30.132Z,1.38
2023-01-27T02:34:07.249Z,1.35
2023-01-27T02:36:46.069Z,1.37
2023-01-27T02:39:22.682Z,1.36
2023-01-27T02:41:59.811Z,1.43
2023-01-27T02:44:33.346Z,1.43
2023-01-27T02:47:06.973Z,1.43
2023-01-27T02:49:40.228Z,1.42
2023-01-27T02:52:13.439Z,1.46
2023-01-27T02:54:46.672Z,1.46
2023-01-27T02:57:21.325Z,1.52
2023-01-27T02:59:54.729Z,1.47
2023-01-27T03:02:30.989Z,1.51
2023-01-27T03:05:04.737Z,1.58
2023-01-27T03:07:38.018Z,1.58
2023-01-27T03:10:12.096Z,1.58
2023-01-27T03:12:48.626Z,1.54
2023-01-27T03:15:40.729Z,1.66
2023-01-27T03:18:16.177Z,1.68
2023-01-27T03:20:50.871Z,1.71
2023-01-27T03:23:24.118Z,1.69
2023-01-27T03:25:57.723Z,1.71
2023-01-27T03:28:32.468Z,1.74
2023-01-27T03:31:07.876Z,1.80
2023-01-27T03:33:43.171Z,1.83
2023-01-27T03:36:34.411Z,1.84
2023-01-27T03:39:25.456Z,1.78
2023-01-27T03:42:16.375Z,1.81
2023-01-27T03:45:08.165Z,1.78
2023-01-27T03:47:41.622Z,1.81
2023-01-27T03:50:19.493Z,1.81
2023-01-27T03:53:03.996Z,1.80
2023-01-27T03:55:38.819Z,1.79
2023-01-27T03:58:20.549Z,1.80
2023-01-27T04:00:57.824Z,1.83
2023-01-27T04:03:51.025Z,1.82
2023-01-27T04:06:43.782Z,1.81
2023-01-27T04:09:21.504Z,1.80
2023-01-27T04:11:56.377Z,1.86
2023-01-27T04:14:32.290Z,1.86
2023-01-27T04:17:08.779Z,1.84
2023-01-27T04:19:42.591Z,1.83
2023-01-27T04:22:17.554Z,1.68
2023-01-27T04:24:50.839Z,1.82
2023-01-27T04:27:24.027Z,1.83
2023-01-27T04:29:57.236Z,1.84
2023-01-27T04:32:32.172Z,1.86
2023-01-27T04:35:06.437Z,1.82
2023-01-27T04:37:39.999Z,1.85
2023-01-27T04:40:14.635Z,1.92
2023-01-27T04:42:48.498Z,1.92
2023-01-27T04:45:21.455Z,1.88
2023-01-27T04:47:56.004Z,1.87
2023-01-27T04:50:29.298Z,1.92
2023-01-27T04:53:02.878Z,1.91
2023-01-27T04:55:36.397Z,1.91
2023-01-27T04:58:09.611Z,1.91
2023-01-27T05:00:42.851Z,1.89
2023-01-27T05:03:17.701Z,1.92
2023-01-27T05:05:50.977Z,1.92
2023-01-27T05:08:24.613Z,1.90
2023-01-27T05:10:58.329Z,1.92
2023-01-27T05:13:31.988Z,1.94
2023-01-27T05:16:08.744Z,1.73
2023-01-27T05:18:44.588Z,1.88
2023-01-27T05:21:19.966Z,1.86
2023-01-27T05:23:53.854Z,1.83
2023-01-27T05:26:28.979Z,1.82
2023-01-27T05:29:02.432Z,1.70
2023-01-27T05:31:35.636Z,1.79
2023-01-27T05:34:11.095Z,1.72
2023-01-27T05:36:44.311Z,1.81
2023-01-27T05:39:17.669Z,1.79
2023-01-27T05:41:51.296Z,1.73
2023-01-27T05:44:24.766Z,1.78
2023-01-27T05:46:57.996Z,1.73
2023-01-27T05:49:33.349Z,1.71
2023-01-27T05:52:06.530Z,1.68
2023-01-27T05:54:39.794Z,1.72
2023-01-27T05:57:13.271Z,1.66
2023-01-27T05:59:47.232Z,1.68
2023-01-27T06:02:22.700Z,1.66
2023-01-27T06:04:57.969Z,1.73
2023-01-27T06:07:31.358Z,1.67
2023-01-27T06:10:04.893Z,1.69
2023-01-27T06:12:39.717Z,1.67
2023-01-27T06:15:13.455Z,1.35
2023-01-27T06:17:47.573Z,1.70
2023-01-27T06:20:22.250Z,1.67
2023-01-27T06:22:55.878Z,1.69
2023-01-27T06:25:29.104Z,1.71
2023-01-27T06:28:02.671Z,1.70
2023-01-27T06:30:37.108Z,1.73
2023-01-27T06:33:13.229Z,1.75
2023-01-27T06:35:49.335Z,1.76
2023-01-27T06:38:22.548Z,1.71
2023-01-27T06:40:55.746Z,1.77
2023-01-27T06:43:29.358Z,1.76
2023-01-27T06:46:05.488Z,1.69
2023-01-27T06:48:39.164Z,1.72
2023-01-27T06:51:13.902Z,1.72
2023-01-27T06:53:47.269Z,1.72
2023-01-27T06:56:20.470Z,1.80
2023-01-27T06:58:53.888Z,1.77
2023-01-27T07:01:28.424Z,1.59
2023-01-27T07:04:02.148Z,1.70
2023-01-27T07:06:36.975Z,1.66
2023-01-27T07:09:10.647Z,1.72
2023-01-27T07:11:45.001Z,1.56
2023-01-27T07:14:18.523Z,1.69
2023-01-27T07:16:52.378Z,1.66
2023-01-27T07:19:25.820Z,1.69
2023-01-27T07:22:01.004Z,1.33
2023-01-27T07:24:34.226Z,1.77
2023-01-27T07:27:07.337Z,1.78
2023-01-27T07:29:40.613Z,1.81
2023-01-27T07:32:13.873Z,1.80
2023-01-27T07:34:47.551Z,1.85
2023-01-27T07:37:22.316Z,1.88
2023-01-27T07:39:55.420Z,1.96
2023-01-27T07:42:28.655Z,2.00
2023-01-27T07:45:02.004Z,2.01
2023-01-27T07:47:35.238Z,2.07
2023-01-27T07:50:09.945Z,2.13
2023-01-27T07:52:44.684Z,2.18
2023-01-27T07:55:18.022Z,2.25
2023-01-27T07:57:54.479Z,2.23
2023-01-27T08:00:28.336Z,2.26
2023-01-27T08:03:03.492Z,2.30
2023-01-27T08:05:38.485Z,2.30
2023-01-27T08:08:13.539Z,2.33
2023-01-27T08:10:49.333Z,2.18
2023-01-27T08:13:23.548Z,2.35
2023-01-27T08:15:58.351Z,2.36
2023-01-27T08:18:33.429Z,2.33
2023-01-27T08:21:08.567Z,2.27
2023-01-27T08:23:43.171Z,2.34
2023-01-27T08:26:16.536Z,2.33
2023-01-27T08:28:49.838Z,2.34
2023-01-27T08:31:23.180Z,2.32
2023-01-27T08:33:56.715Z,2.29
2023-01-27T08:36:30.830Z,2.23
2023-01-27T08:39:05.707Z,2.37
2023-01-27T08:41:39.108Z,2.40
2023-01-27T08:44:12.278Z,2.39
2023-01-27T08:46:45.899Z,2.40
2023-01-27T08:49:19.476Z,2.43
2023-01-27T08:51:53.079Z,2.47
2023-01-27T08:54:27.669Z,2.43
2023-01-27T08:57:00.895Z,2.55
2023-01-27T08:59:34.381Z,2.55
2023-01-27T09:02:07.953Z,2.59
2023-01-27T09:04:43.909Z,2.58
2023-01-27T09:07:18.140Z,2.60
2023-01-27T09:10:04.194Z,2.63
2023-01-27T09:12:46.608Z,2.68
2023-01-27T09:15:20.769Z,2.66
2023-01-27T09:17:54.373Z,2.68
2023-01-27T09:20:28.071Z,2.68
2023-01-27T09:23:01.372Z,2.67
2023-01-27T09:25:35.936Z,2.43
2023-01-27T09:28:16.920Z,2.75
2023-01-27T09:30:50.413Z,2.74
2023-01-27T09:33:23.720Z,2.74
2023-01-27T09:36:01.977Z,2.76
2023-01-27T09:38:39.281Z,2.78
2023-01-27T09:41:43.880Z,2.78
2023-01-27T09:44:52.877Z,2.68
2023-01-27T09:47:50.324Z,2.72
2023-01-27T09:50:40.756Z,2.74
2023-01-27T09:53:46.903Z,2.63
2023-01-27T09:56:29.917Z,2.79
2023-01-27T09:59:49.307Z,2.79
2023-01-27T10:02:39.518Z,2.80
2023-01-27T10:05:36.063Z,2.75
2023-01-27T10:08:25.291Z,2.81
2023-01-27T10:11:13.542Z,2.84
2023-01-27T10:14:00.258Z,2.82
2023-01-27T10:16:58.878Z,2.88
2023-01-27T10:19:46.679Z,2.87
2023-01-27T10:22:31.539Z,2.84
2023-01-27T10:25:18.773Z,2.85
2023-01-27T10:27:58.031Z,2.68
2023-01-27T10:30:36.310Z,2.88
2023-01-27T10:33:18.141Z,2.91
2023-01-27T10:35:53.751Z,2.94
2023-01-27T10:38:38.895Z,2.97
2023-01-27T10:41:26.554Z,3.01
2023-01-27T10:44:14.484Z,3.06
2023-01-27T10:46:59.588Z,3.08
2023-01-27T10:49:39.575Z,3.15
2023-01-27T10:52:16.539Z,3.17
2023-01-27T10:54:54.847Z,3.22
2023-01-27T10:57:34.530Z,3.20
2023-01-27T11:00:46.195Z,3.20
2023-01-27T11:03:17.421Z,3.26
2023-01-27T11:05:53.951Z,3.12
2023-01-27T11:08:30.301Z,3.27
2023-01-27T11:11:24.378Z,3.34
2023-01-27T11:14:04.647Z,3.41
2023-01-27T11:16:41.382Z,3.35
2023-01-27T11:19:25.096Z,3.47
2023-01-27T11:22:07.771Z,3.48
2023-01-27T11:24:46.535Z,3.53
2023-01-27T11:27:28.184Z,3.54
2023-01-27T11:30:10.555Z,3.57
2023-01-27T11:32:54.457Z,3.59
2023-01-27T11:35:29.815Z,3.56
2023-01-27T11:38:14.836Z,3.61
2023-01-27T11:40:51.254Z,3.63
2023-01-27T11:43:26.588Z,3.72
2023-01-27T11:46:03.910Z,3.80
2023-01-27T11:48:41.315Z,3.88
2023-01-27T11:51:22.929Z,3.86
2023-01-27T11:54:10.548Z,3.92
2023-01-27T11:56:47.168Z,3.70
2023-01-27T11:59:23.986Z,3.97
2023-01-27T12:02:00.798Z,4.03
2023-01-27T12:04:49.906Z,4.11
2023-01-27T12:07:40.328Z,4.15
2023-01-27T12:10:26.633Z,4.20
2023-01-27T12:13:03.756Z,4.24
2023-01-27T12:15:47.935Z,4.08
2023-01-27T12:18:23.603Z,4.26
2023-01-27T12:21:01.566Z,4.22
2023-01-27T12:23:41.298Z,4.19
2023-01-27T12:26:15.026Z,4.26
2023-01-27T12:28:52.210Z,4.24
2023-01-27T12:31:28.893Z,4.24
2023-01-27T12:34:05.223Z,4.10
2023-01-27T12:36:40.864Z,4.23
2023-01-27T12:39:29.938Z,3.80
2023-01-27T12:42:03.482Z,4.36
2023-01-27T12:44:44.872Z,4.42
2023-01-27T12:47:25.160Z,4.40
2023-01-27T12:50:22.257Z,4.45
2023-01-27T12:53:05.791Z,4.44
2023-01-27T12:55:45.404Z,4.39
2023-01-27T12:58:32.709Z,4.31
2023-01-27T13:01:09.314Z,4.27
2023-01-27T13:03:43.852Z,4.12
2023-01-27T13:06:19.973Z,4.22
2023-01-27T13:08:54.533Z,4.28
2023-01-27T13:11:37.795Z,3.99
2023-01-27T13:14:18.405Z,4.26
2023-01-27T13:16:53.396Z,4.24
2023-01-27T13:19:35.930Z,4.24
2023-01-27T13:22:18.923Z,4.20
2023-01-27T13:24:59.105Z,4.26
2023-01-27T13:27:40.776Z,4.28
2023-01-27T13:30:25.059Z,4.26
2023-01-27T13:33:04.031Z,4.29
2023-01-27T13:35:44.704Z,4.25
2023-01-27T13:38:24.197Z,4.34
2023-01-27T13:40:58.260Z,4.30
2023-01-27T13:43:41.527Z,4.28
2023-01-27T13:46:21.831Z,4.24
2023-01-27T13:48:57.657Z,4.18
2023-01-27T13:51:32.411Z,4.17
2023-01-27T13:54:06.546Z,4.17
2023-01-27T13:56:47.684Z,4.15
2023-01-27T13:59:40.227Z,4.17
2023-01-27T14:02:34.679Z,4.12
2023-01-27T14:05:26.470Z,4.12
2023-01-27T14:08:13.256Z,4.10
2023-01-27T14:11:00.411Z,4.09
2023-01-27T14:13:54.958Z,4.04
2023-01-27T14:16:41.929Z,4.05
2023-01-27T14:19:30.036Z,4.05
2023-01-27T14:22:10.828Z,3.94
2023-01-27T14:24:53.389Z,4.06
2023-01-27T14:27:33.715Z,4.04
2023-01-27T14:30:14.943Z,4.05
2023-01-27T14:32:59.851Z,4.07
2023-01-27T14:35:42.832Z,4.07
2023-01-27T14:38:23.655Z,4.06
2023-01-27T14:41:11.389Z,4.01
2023-01-27T14:43:55.501Z,4.09
2023-01-27T14:46:48.219Z,4.07
2023-01-27T14:49:33.512Z,4.07
2023-01-27T14:52:22.019Z,4.06
2023-01-27T14:55:16.077Z,4.03
2023-01-27T14:57:58.222Z,4.07
2023-01-27T15:00:42.895Z,4.06
2023-01-27T15:03:49.157Z,4.09
2023-01-27T15:06:31.854Z,4.07
2023-01-27T15:09:18.071Z,4.01
2023-01-27T15:12:12.892Z,4.02
2023-01-27T15:15:29.209Z,4.03
2023-01-27T15:18:16.150Z,4.02
2023-01-27T15:21:03.429Z,3.99
2023-01-27T15:23:55.789Z,4.00
2023-01-27T15:26:30.594Z,4.00
2023-01-27T15:29:05.834Z,3.96
2023-01-27T15:31:39.008Z,3.88
2023-01-27T15:34:23.291Z,3.97
2023-01-27T15:37:02.943Z,3.97
2023-01-27T15:40:04.103Z,3.97
2023-01-27T15:42:52.613Z,3.54
2023-01-27T15:45:31.173Z,3.99
2023-01-27T15:48:11.533Z,3.96
2023-01-27T15:50:48.390Z,3.96
2023-01-27T15:53:29.809Z,3.95
2023-01-27T15:56:06.527Z,3.98
2023-01-27T15:58:42.197Z,3.99
2023-01-27T16:01:26.788Z,3.97
2023-01-27T16:04:16.406Z,3.93
2023-01-27T16:06:53.166Z,3.95
2023-01-27T16:09:35.262Z,3.95
2023-01-27T16:12:33.372Z,3.98
2023-01-27T16:15:39.042Z,3.92
2023-01-27T16:18:27.628Z,3.93
2023-01-27T16:21:06.600Z,3.96
2023-01-27T16:23:47.955Z,3.95
2023-01-27T16:26:32.830Z,3.92
2023-01-27T16:29:27.984Z,3.92
2023-01-27T16:32:05.705Z,3.93
2023-01-27T16:34:42.862Z,3.88
2023-01-27T16:37:25.052Z,3.89
2023-01-27T16:40:05.779Z,3.92
2023-01-27T16:42:46.522Z,3.92
2023-01-27T16:45:23.775Z,3.94
2023-01-27T16:48:01.247Z,3.90
2023-01-27T16:50:38.183Z,3.91
2023-01-27T16:53:18.740Z,3.86
2023-01-27T16:55:58.573Z,3.83
2023-01-27T16:58:45.549Z,3.82
2023-01-27T17:01:26.669Z,3.81
2023-01-27T17:04:17.937Z,3.79
2023-01-27T17:06:54.205Z,3.77
2023-01-27T17:09:31.964Z,3.76
2023-01-27T17:12:07.015Z,3.74
2023-01-27T17:14:48.488Z,3.73
2023-01-27T17:17:25.982Z,3.72
2023-01-27T17:20:03.861Z,3.75
2023-01-27T17:22:40.487Z,3.72
2023-01-27T17:25:16.909Z,3.74
2023-01-27T17:27:50.433Z,3.70
2023-01-27T17:30:27.510Z,3.72
2023-01-27T17:33:06.033Z,3.68
2023-01-27T17:35:42.461Z,3.73
2023-01-27T17:38:21.062Z,3.72
2023-01-27T17:40:56.857Z,3.71
2023-01-27T17:43:32.833Z,3.69
2023-01-27T17:46:16.368Z,3.70
2023-01-27T17:48:56.323Z,3.65
2023-01-27T17:51:36.750Z,3.65
2023-01-27T17:54:21.440Z,3.61
2023-01-27T17:57:04.725Z,3.62
2023-01-27T17:59:42.786Z,3.61
2023-01-27T18:02:21.641Z,3.58
2023-01-27T18:05:01.042Z,3.58
2023-01-27T18:07:34.851Z,3.57
2023-01-27T18:10:25.030Z,3.56
2023-01-27T18:13:12.998Z,3.55
2023-01-27T18:15:51.580Z,3.46
2023-01-27T18:18:27.218Z,3.33
2023-01-27T18:21:08.590Z,3.45
2023-01-27T18:23:46.893Z,3.42
2023-01-27T18:26:24.953Z,3.41
2023-01-27T18:29:01.643Z,3.40
2023-01-27T18:31:39.525Z,3.37
2023-01-27T18:34:25.753Z,3.36
2023-01-27T18:37:05.191Z,3.36
2023-01-27T18:39:43.829Z,3.27
2023-01-27T18:42:20.715Z,3.33
2023-01-27T18:44:55.938Z,3.24
2023-01-27T18:47:34.599Z,3.27
2023-01-27T18:50:17.120Z,3.10
2023-01-27T18:52:54.331Z,3.18
2023-01-27T18:55:30.798Z,3.20
2023-01-27T18:58:09.031Z,3.16
2023-01-27T19:00:46.232Z,3.13
2023-01-27T19:03:24.271Z,3.16
2023-01-27T19:05:59.381Z,3.15
2023-01-27T19:08:35.848Z,3.13
2023-01-27T19:11:12.666Z,3.08
2023-01-27T19:13:49.693Z,3.08
2023-01-27T19:16:24.961Z,3.16
2023-01-27T19:18:59.796Z,3.05
2023-01-27T19:21:34.473Z,3.09
2023-01-27T19:24:13.190Z,3.13
2023-01-27T19:26:48.251Z,3.13
2023-01-27T19:29:23.262Z,3.12
2023-01-27T19:31:57.647Z,3.07
2023-01-27T19:34:32.093Z,3.00
2023-01-27T19:37:06.429Z,2.99
2023-01-27T19:39:41.042Z,2.94
2023-01-27T19:42:17.067Z,2.97
2023-01-27T19:44:50.592Z,2.96
2023-01-27T19:47:24.211Z,2.95
2023-01-27T19:49:58.180Z,2.92
2023-01-27T19:52:31.735Z,2.95
2023-01-27T19:55:08.051Z,2.91
2023-01-27T19:57:43.205Z,2.91
2023-01-27T20:00:23.559Z,2.89
2023-01-27T20:02:58.223Z,2.87
2023-01-27T20:05:35.540Z,2.87
2023-01-27T20:08:15.483Z,2.86
2023-01-27T20:10:51.421Z,2.82
2023-01-27T20:13:25.636Z,2.86
2023-01-27T20:15:59.175Z,2.79
2023-01-27T20:18:32.975Z,2.77
2023-01-27T20:21:06.336Z,2.83
2023-01-27T20:23:45.569Z,2.72
2023-01-27T20:26:22.486Z,2.83
2023-01-27T20:28:56.859Z,2.82
2023-01-27T20:31:30.507Z,2.81
2023-01-27T20:34:03.978Z,2.82
2023-01-27T20:36:37.560Z,2.79
2023-01-27T20:39:11.848Z,2.82
2023-01-27T20:41:46.466Z,2.80
2023-01-27T20:44:20.536Z,2.81
2023-01-27T20:46:53.964Z,2.81
2023-01-27T20:49:27.567Z,2.74
2023-01-27T20:52:00.908Z,2.76
2023-01-27T20:54:34.317Z,2.74
2023-01-27T20:57:08.979Z,2.75
2023-01-27T20:59:42.431Z,2.78
2023-01-27T21:02:16.157Z,2.79
2023-01-27T21:04:49.715Z,2.84
2023-01-27T21:07:23.464Z,2.76
2023-01-27T21:09:56.407Z,2.75
2023-01-27T21:12:31.623Z,2.68
2023-01-27T21:15:09.832Z,2.68
2023-01-27T21:17:44.022Z,2.69
2023-01-27T21:20:17.869Z,2.70
2023-01-27T21:22:51.006Z,2.68
2023-01-27T21:25:24.251Z,2.56
2023-01-27T21:27:58.797Z,2.69
2023-01-27T21:30:32.270Z,2.67
2023-01-27T21:33:05.848Z,2.72
2023-01-27T21:35:39.477Z,2.60
2023-01-27T21:38:16.567Z,2.67
2023-01-27T21:40:51.520Z,2.64
2023-01-27T21:43:43.799Z,2.61
2023-01-27T21:46:17.153Z,2.67
2023-01-27T21:48:50.458Z,2.57
2023-01-27T21:51:23.635Z,2.57
2023-01-27T21:53:56.960Z,2.55
2023-01-27T21:56:30.392Z,2.53
2023-01-27T21:59:05.404Z,2.52
2023-01-27T22:01:38.858Z,2.50
2023-01-27T22:04:12.336Z,2.47
2023-01-27T22:06:45.847Z,2.48
2023-01-27T22:09:19.298Z,2.46
2023-01-27T22:11:54.102Z,2.42
2023-01-27T22:14:30.897Z,2.44
2023-01-27T22:17:05.168Z,2.39
2023-01-27T22:19:39.221Z,2.33
2023-01-27T22:22:14.344Z,2.42
2023-01-27T22:24:47.536Z,2.36
2023-01-27T22:27:20.965Z,2.33
2023-01-27T22:29:56.068Z,2.28
2023-01-27T22:32:29.469Z,2.26
2023-01-27T22:35:02.816Z,2.27
2023-01-27T22:37:37.736Z,2.23
2023-01-27T22:40:13.664Z,2.08
2023-01-27T22:42:49.441Z,2.23
2023-01-27T22:45:25.480Z,2.17
2023-01-27T22:47:58.861Z,2.14
2023-01-27T22:50:32.182Z,2.17
2023-01-27T22:53:06.379Z,2.14
2023-01-27T22:55:39.601Z,2.14
2023-01-27T22:58:12.995Z,2.10
2023-01-27T23:00:47.892Z,2.04
2023-01-27T23:03:21.491Z,2.02
2023-01-27T23:05:54.605Z,2.04
2023-01-27T23:08:28.099Z,2.09
2023-01-27T23:11:02.574Z,1.97
2023-01-27T23:13:37.045Z,1.96
2023-01-27T23:16:12.681Z,1.97
2023-01-27T23:18:45.910Z,1.88
2023-01-27T23:21:19.184Z,1.87
2023-01-27T23:23:52.427Z,1.87
2023-01-27T23:26:25.975Z,1.91
2023-01-27T23:28:59.216Z,1.67
2023-01-27T23:31:34.228Z,1.83
2023-01-27T23:34:07.966Z,1.76
2023-01-27T23:36:41.277Z,1.85
2023-01-27T23:39:15.818Z,1.68
2023-01-27T23:41:49.087Z,1.73
2023-01-27T23:44:22.470Z,1.78
2023-01-27T23:46:57.141Z,1.77
2023-01-27T23:49:30.809Z,1.81
2023-01-27T23:52:04.280Z,1.75
2023-01-27T23:54:37.461Z,1.82
2023-01-27T23:57:11.052Z,1.86
2023-01-27T23:59:44.193Z,1.75
